Time;durP1;ratioP1;P1;durP2;ratioP2;P2;SDS_P1;SDS_P2;PMS_P1;PMS_P2;Temp;Humidity;BMP_temperature;BMP_pressure;BME280_temperature;BME280_humidity;BME280_pressure;Samples;Min_cycle;Max_cycle;Signal;HPM_P1;HPM_P2
2023/06/02 00:01:33;;;;;;;7.82;2.20;;;13.60;63.90;;;;;;5085412;28;20028;-69
2023/06/02 00:03:59;;;;;;;6.03;1.95;;;13.60;63.90;;;;;;5086038;28;20013;-69
2023/06/02 00:06:26;;;;;;;4.38;1.80;;;13.60;63.80;;;;;;5084489;28;20124;-69
2023/06/02 00:08:52;;;;;;;5.75;2.08;;;13.60;63.80;;;;;;5079502;28;20129;-70
2023/06/02 00:11:19;;;;;;;6.93;2.00;;;13.60;63.70;;;;;;5092450;28;20016;-69
2023/06/02 00:13:44;;;;;;;6.68;1.90;;;13.60;63.70;;;;;;5072854;28;20025;-69
2023/06/02 00:16:12;;;;;;;7.30;2.08;;;13.60;63.60;;;;;;5073581;28;20024;-69
2023/06/02 00:18:38;;;;;;;5.57;2.08;;;13.60;63.60;;;;;;5081847;28;20017;-69
2023/06/02 00:21:08;;;;;;;5.47;2.15;;;13.50;63.60;;;;;;5071265;28;20093;-70
2023/06/02 00:23:33;;;;;;;8.45;2.70;;;13.50;63.70;;;;;;5072201;28;20021;-69
2023/06/02 00:26:00;;;;;;;6.50;2.00;;;13.50;63.80;;;;;;5082796;28;20161;-69
2023/06/02 00:28:26;;;;;;;7.35;2.38;;;13.40;63.90;;;;;;5070675;28;20029;-70
2023/06/02 00:30:52;;;;;;;8.77;2.50;;;13.30;64.20;;;;;;5080477;28;20024;-69
2023/06/02 00:33:18;;;;;;;5.85;2.13;;;13.30;64.30;;;;;;5082305;28;20383;-70
2023/06/02 00:35:43;;;;;;;4.88;2.25;;;13.30;64.30;;;;;;5089157;28;20067;-70
2023/06/02 00:38:09;;;;;;;8.07;2.20;;;13.20;64.30;;;;;;5074619;28;20044;-70
2023/06/02 00:40:35;;;;;;;6.25;2.22;;;13.20;64.40;;;;;;5075963;28;20035;-70
2023/06/02 00:43:01;;;;;;;6.90;2.42;;;13.20;64.40;;;;;;5085662;28;20031;-70
2023/06/02 00:45:27;;;;;;;9.25;2.92;;;13.20;64.30;;;;;;5077768;28;20039;-69
2023/06/02 00:47:53;;;;;;;6.95;2.10;;;13.20;64.40;;;;;;5083639;28;20028;-68
2023/06/02 00:50:18;;;;;;;7.22;2.55;;;13.20;64.40;;;;;;5081659;28;20036;-69
2023/06/02 00:52:46;;;;;;;8.05;2.30;;;13.30;64.30;;;;;;5081947;28;20049;-68
2023/06/02 00:55:11;;;;;;;5.45;2.13;;;13.30;64.10;;;;;;5072018;28;20020;-68
2023/06/02 00:57:40;;;;;;;7.60;2.33;;;13.30;64.10;;;;;;5075298;28;20033;-69
2023/06/02 01:00:07;;;;;;;7.07;2.65;;;13.30;64.10;;;;;;5082569;28;20031;-69
2023/06/02 01:02:34;;;;;;;8.93;2.60;;;13.20;64.50;;;;;;5089734;28;20052;-68
2023/06/02 01:05:00;;;;;;;9.13;2.78;;;13.20;64.40;;;;;;5081237;28;20025;-68
2023/06/02 01:07:28;;;;;;;5.15;2.20;;;13.10;64.30;;;;;;5075964;28;20389;-69
2023/06/02 01:09:56;;;;;;;7.22;2.22;;;13.10;64.30;;;;;;5080751;28;20475;-69
2023/06/02 01:12:23;;;;;;;8.85;2.58;;;13.10;64.20;;;;;;5080780;28;20016;-68
2023/06/02 01:14:49;;;;;;;8.85;2.40;;;13.10;64.10;;;;;;5069675;28;20029;-68
2023/06/02 01:17:15;;;;;;;6.13;2.30;;;13.00;64.10;;;;;;5071783;28;20111;-68
2023/06/02 01:19:41;;;;;;;9.10;2.75;;;13.10;64.10;;;;;;5079304;28;20386;-68
2023/06/02 01:22:11;;;;;;;7.18;2.72;;;13.00;64.00;;;;;;5085631;28;20024;-69
2023/06/02 01:24:39;;;;;;;6.93;2.35;;;12.90;64.00;;;;;;5071008;28;20021;-69
2023/06/02 01:27:09;;;;;;;7.88;2.40;;;12.80;64.20;;;;;;5079533;28;20031;-69
2023/06/02 01:29:36;;;;;;;5.47;2.40;;;12.80;64.20;;;;;;5084605;28;20529;-69
2023/06/02 01:32:13;;;;;;;7.00;2.42;;;12.80;64.10;;;;;;5069689;28;20128;-69
2023/06/02 01:34:49;;;;;;;6.03;2.50;;;12.80;64.10;;;;;;5081862;28;20047;-69
2023/06/02 01:37:16;;;;;;;6.03;2.20;;;12.80;64.20;;;;;;5075528;28;20678;-68
2023/06/02 01:39:42;;;;;;;8.23;2.70;;;12.80;64.20;;;;;;5081015;28;20060;-68
2023/06/02 01:42:10;;;;;;;7.28;2.42;;;12.70;64.30;;;;;;5081869;28;20020;-69
2023/06/02 01:44:37;;;;;;;6.07;2.53;;;12.70;64.40;;;;;;5069526;28;20033;-69
2023/06/02 01:47:03;;;;;;;10.00;2.50;;;12.70;64.60;;;;;;5068630;28;20521;-69
2023/06/02 01:49:28;;;;;;;12.00;2.47;;;12.70;64.70;;;;;;5081162;28;20056;-69
2023/06/02 01:51:54;;;;;;;8.60;2.47;;;12.70;64.70;;;;;;5080066;28;20089;-69
2023/06/02 01:54:20;;;;;;;6.30;2.13;;;12.70;64.70;;;;;;5070492;28;20020;-69
2023/06/02 01:56:46;;;;;;;5.93;2.38;;;12.70;64.60;;;;;;5076746;28;20024;-69
2023/06/02 01:59:12;;;;;;;6.10;2.30;;;12.70;64.70;;;;;;5078492;28;20368;-69
2023/06/02 02:01:40;;;;;;;5.60;2.60;;;12.70;64.80;;;;;;5074922;28;20391;-70
2023/06/02 02:04:06;;;;;;;6.82;2.50;;;12.60;64.80;;;;;;5071871;28;20021;-69
2023/06/02 02:06:32;;;;;;;5.22;2.42;;;12.60;64.80;;;;;;5073570;28;20027;-69
2023/06/02 02:08:58;;;;;;;6.90;2.22;;;12.60;64.90;;;;;;5072857;28;20031;-69
2023/06/02 02:11:26;;;;;;;6.90;2.72;;;12.60;65.00;;;;;;5073150;28;20020;-69
2023/06/02 02:13:52;;;;;;;7.57;2.25;;;12.60;65.10;;;;;;5072746;28;20032;-69
2023/06/02 02:16:17;;;;;;;6.38;2.60;;;12.60;65.20;;;;;;5076113;28;20028;-69
2023/06/02 02:18:45;;;;;;;5.65;2.33;;;12.60;65.10;;;;;;5074645;28;20605;-69
2023/06/02 02:21:11;;;;;;;5.53;2.15;;;12.60;65.00;;;;;;5070833;28;20035;-69
2023/06/02 02:23:37;;;;;;;3.70;1.88;;;12.70;65.00;;;;;;5077493;28;20039;-68
2023/06/02 02:26:02;;;;;;;7.10;2.55;;;12.70;65.00;;;;;;5079836;28;20052;-69
2023/06/02 02:28:28;;;;;;;4.72;1.98;;;12.70;65.00;;;;;;5076634;28;20082;-69
2023/06/02 02:30:53;;;;;;;5.53;2.28;;;12.70;65.20;;;;;;5076364;28;20024;-69
2023/06/02 02:33:19;;;;;;;5.45;2.00;;;12.60;65.10;;;;;;5080566;28;20078;-69
2023/06/02 02:35:45;;;;;;;5.60;2.38;;;12.70;65.20;;;;;;5083860;28;20107;-68
2023/06/02 02:38:11;;;;;;;6.57;2.38;;;12.60;65.20;;;;;;5085436;28;20398;-70
2023/06/02 02:40:36;;;;;;;6.78;2.40;;;12.70;65.20;;;;;;5069525;28;20021;-70
2023/06/02 02:43:02;;;;;;;5.53;2.00;;;12.70;65.20;;;;;;5073364;28;20740;-70
2023/06/02 02:45:27;;;;;;;5.65;2.72;;;12.70;65.10;;;;;;5070325;28;20016;-70
2023/06/02 02:47:53;;;;;;;5.72;2.45;;;12.70;65.30;;;;;;5076724;28;20043;-70
2023/06/02 02:50:18;;;;;;;4.40;2.20;;;12.60;65.50;;;;;;5079688;28;20081;-70
2023/06/02 02:52:44;;;;;;;5.28;1.90;;;12.50;65.60;;;;;;5074347;28;20028;-69
2023/06/02 02:55:10;;;;;;;4.57;2.17;;;12.50;65.60;;;;;;5076818;28;20020;-68
2023/06/02 02:57:36;;;;;;;4.82;2.00;;;12.50;65.60;;;;;;5078306;28;20020;-68
2023/06/02 03:00:05;;;;;;;4.53;1.90;;;12.60;65.60;;;;;;5069026;28;20023;-68
2023/06/02 03:02:30;;;;;;;7.03;2.03;;;12.60;65.60;;;;;;5085037;28;20022;-68
2023/06/02 03:04:56;;;;;;;7.45;2.10;;;12.60;65.60;;;;;;5085875;28;20099;-69
2023/06/02 03:07:22;;;;;;;5.75;2.22;;;12.60;65.50;;;;;;5073196;28;20067;-69
2023/06/02 03:09:48;;;;;;;6.60;2.20;;;12.60;65.60;;;;;;5088067;28;20569;-69
2023/06/02 03:12:13;;;;;;;5.18;2.33;;;12.60;65.60;;;;;;5083804;28;20113;-69
2023/06/02 03:14:39;;;;;;;5.82;2.22;;;12.50;65.70;;;;;;5090408;28;20061;-69
2023/06/02 03:17:05;;;;;;;5.25;1.75;;;12.50;65.70;;;;;;5082079;28;20622;-68
2023/06/02 03:19:31;;;;;;;6.05;2.05;;;12.50;65.70;;;;;;5085295;28;20032;-68
2023/06/02 03:21:56;;;;;;;5.82;1.90;;;12.40;65.90;;;;;;5078366;28;20016;-69
2023/06/02 03:24:22;;;;;;;3.40;1.80;;;12.50;65.80;;;;;;5092305;28;20052;-69
2023/06/02 03:26:51;;;;;;;6.25;2.20;;;12.50;65.70;;;;;;5077952;28;20107;-69
2023/06/02 03:29:17;;;;;;;5.88;1.90;;;12.50;65.70;;;;;;5081174;28;20035;-69
2023/06/02 03:31:42;;;;;;;5.35;2.13;;;12.50;65.70;;;;;;5081767;28;20091;-69
2023/06/02 03:34:08;;;;;;;4.05;2.10;;;12.50;65.60;;;;;;5082064;28;20032;-69
2023/06/02 03:36:35;;;;;;;6.43;2.10;;;12.60;65.50;;;;;;5085229;28;20024;-69
2023/06/02 03:39:03;;;;;;;4.70;1.80;;;12.60;65.50;;;;;;5079809;28;20012;-69
2023/06/02 03:41:28;;;;;;;6.72;1.95;;;12.50;65.40;;;;;;5085998;28;20021;-69
2023/06/02 03:43:54;;;;;;;7.78;2.28;;;12.50;65.40;;;;;;5073983;28;20036;-69
2023/06/02 03:46:19;;;;;;;6.15;2.30;;;12.50;65.40;;;;;;5085222;28;20028;-69
2023/06/02 03:48:45;;;;;;;6.03;2.20;;;12.50;65.50;;;;;;5072851;28;20095;-69
2023/06/02 03:51:10;;;;;;;3.72;1.58;;;12.50;65.70;;;;;;5079644;28;20062;-69
2023/06/02 03:53:36;;;;;;;4.75;2.03;;;12.50;65.60;;;;;;5076171;28;20078;-69
2023/06/02 03:56:02;;;;;;;9.10;2.30;;;12.60;65.70;;;;;;5082376;28;20017;-69
2023/06/02 03:58:27;;;;;;;6.95;2.15;;;12.50;65.60;;;;;;5076782;28;20020;-70
2023/06/02 04:00:54;;;;;;;7.50;2.30;;;12.50;65.70;;;;;;5074228;28;20113;-69
2023/06/02 04:03:21;;;;;;;7.30;2.08;;;12.50;65.80;;;;;;5079059;28;20029;-69
2023/06/02 04:05:46;;;;;;;6.35;2.00;;;12.50;65.90;;;;;;5082366;28;20024;-69
2023/06/02 04:08:14;;;;;;;5.80;1.90;;;12.50;66.00;;;;;;5072391;28;20024;-69
2023/06/02 04:10:40;;;;;;;6.80;2.20;;;12.50;66.00;;;;;;5084277;28;20020;-69
2023/06/02 04:13:05;;;;;;;4.82;2.13;;;12.50;66.00;;;;;;5081113;28;20039;-68
2023/06/02 04:15:31;;;;;;;4.97;2.15;;;12.50;66.10;;;;;;5088555;28;20067;-69
2023/06/02 04:17:57;;;;;;;4.55;1.70;;;12.50;66.00;;;;;;5087378;28;20103;-69
2023/06/02 04:20:23;;;;;;;6.63;1.98;;;12.60;65.90;;;;;;5073339;28;20458;-69
2023/06/02 04:22:48;;;;;;;5.45;1.77;;;12.60;65.80;;;;;;5081900;28;20024;-69
2023/06/02 04:25:14;;;;;;;5.72;1.92;;;12.60;65.80;;;;;;5082300;28;20453;-69
2023/06/02 04:27:40;;;;;;;4.63;2.05;;;12.60;65.80;;;;;;5072456;28;20068;-69
2023/06/02 04:30:07;;;;;;;6.47;2.10;;;12.60;65.70;;;;;;5081327;28;20024;-69
2023/06/02 04:32:32;;;;;;;4.93;2.03;;;12.50;65.80;;;;;;5073845;28;20021;-69
2023/06/02 04:34:58;;;;;;;5.25;2.13;;;12.50;65.80;;;;;;5079529;28;20020;-69
2023/06/02 04:37:25;;;;;;;8.55;2.15;;;12.50;65.60;;;;;;5084260;28;20478;-68
2023/06/02 04:39:51;;;;;;;8.15;2.15;;;12.60;65.80;;;;;;5075070;28;20016;-69
2023/06/02 04:42:17;;;;;;;7.70;1.92;;;12.60;65.60;;;;;;5088852;28;20028;-68
2023/06/02 04:44:44;;;;;;;5.47;1.92;;;12.60;65.50;;;;;;5073766;28;20038;-68
2023/06/02 04:47:10;;;;;;;6.78;2.08;;;12.60;65.30;;;;;;5080159;28;20483;-68
2023/06/02 04:49:37;;;;;;;7.00;2.10;;;12.60;65.30;;;;;;5078339;28;20036;-68
2023/06/02 04:52:09;;;;;;;7.70;2.20;;;12.60;65.30;;;;;;5079511;28;20487;-68
2023/06/02 04:54:35;;;;;;;6.82;2.10;;;12.60;65.30;;;;;;5071422;28;20040;-68
2023/06/02 04:57:05;;;;;;;8.95;2.53;;;12.60;65.40;;;;;;5084279;28;20488;-68
2023/06/02 04:59:33;;;;;;;6.95;2.08;;;12.50;65.20;;;;;;5071019;28;20026;-68
2023/06/02 05:01:59;;;;;;;7.97;2.03;;;12.60;65.20;;;;;;5077768;28;20023;-68
2023/06/02 05:04:25;;;;;;;4.88;1.90;;;12.50;65.10;;;;;;5076729;28;20529;-69
2023/06/02 05:06:51;;;;;;;9.18;2.53;;;12.50;65.20;;;;;;5078139;28;20054;-68
2023/06/02 05:09:17;;;;;;;7.22;1.83;;;12.60;65.30;;;;;;5072407;28;20046;-68
2023/06/02 05:11:43;;;;;;;5.28;1.83;;;12.60;65.10;;;;;;5075585;28;20020;-68
2023/06/02 05:14:09;;;;;;;7.30;2.15;;;12.60;65.10;;;;;;5079644;28;20016;-68
2023/06/02 05:16:36;;;;;;;9.82;2.40;;;12.70;65.10;;;;;;5085835;28;20017;-68
2023/06/02 05:19:03;;;;;;;8.00;2.35;;;12.70;65.00;;;;;;5085725;28;20027;-68
2023/06/02 05:21:30;;;;;;;5.68;2.13;;;12.70;65.00;;;;;;5075540;28;20051;-68
2023/06/02 05:23:56;;;;;;;5.68;1.63;;;12.70;64.90;;;;;;5074739;28;20025;-68
2023/06/02 05:26:21;;;;;;;6.30;2.10;;;12.80;64.90;;;;;;5074584;28;20035;-69
2023/06/02 05:28:50;;;;;;;5.38;1.80;;;12.90;64.80;;;;;;5074618;28;20036;-69
2023/06/02 05:31:16;;;;;;;6.00;1.90;;;12.90;64.70;;;;;;5064912;28;20419;-70
2023/06/02 05:33:42;;;;;;;6.10;2.22;;;13.00;64.60;;;;;;5053486;28;20075;-69
2023/06/02 05:36:08;;;;;;;5.45;1.50;;;13.00;64.50;;;;;;5060993;28;20021;-70
2023/06/02 05:38:33;;;;;;;6.18;2.22;;;13.00;64.40;;;;;;5052242;28;20025;-69
2023/06/02 05:40:59;;;;;;;7.53;2.30;;;13.00;64.30;;;;;;5061386;28;20028;-69
2023/06/02 05:43:25;;;;;;;7.70;2.00;;;12.90;64.20;;;;;;5065420;28;20445;-69
2023/06/02 05:45:50;;;;;;;6.45;1.70;;;12.90;64.20;;;;;;5055053;28;20017;-69
2023/06/02 05:48:16;;;;;;;5.78;1.95;;;13.00;64.30;;;;;;5072029;28;20032;-70
2023/06/02 05:50:43;;;;;;;6.85;2.05;;;13.10;64.10;;;;;;5075838;28;20032;-69
2023/06/02 05:53:08;;;;;;;7.07;1.88;;;13.10;63.90;;;;;;5069613;28;20099;-70
2023/06/02 05:55:34;;;;;;;9.15;2.67;;;13.10;63.90;;;;;;5070085;28;20116;-69
2023/06/02 05:57:59;;;;;;;6.65;1.85;;;13.10;63.90;;;;;;5070661;28;20032;-69
2023/06/02 06:00:25;;;;;;;8.02;2.22;;;13.10;63.90;;;;;;5070727;28;20406;-69
2023/06/02 06:02:51;;;;;;;7.28;2.00;;;13.10;63.80;;;;;;5078476;28;20032;-69
2023/06/02 06:05:16;;;;;;;6.88;2.05;;;13.10;63.80;;;;;;5073871;28;20103;-69
2023/06/02 06:07:42;;;;;;;4.38;1.92;;;13.20;63.50;;;;;;5080317;28;20035;-68
2023/06/02 06:10:08;;;;;;;5.97;2.08;;;13.20;63.50;;;;;;5073420;28;20032;-69
2023/06/02 06:12:33;;;;;;;5.85;2.33;;;13.20;63.50;;;;;;5070073;28;20035;-69
2023/06/02 06:14:59;;;;;;;6.47;2.10;;;13.30;63.40;;;;;;5070108;28;20017;-69
2023/06/02 06:17:24;;;;;;;6.85;2.00;;;13.20;63.50;;;;;;5078984;28;20099;-69
2023/06/02 06:19:50;;;;;;;6.43;2.05;;;13.30;63.40;;;;;;5070359;28;20024;-69
2023/06/02 06:22:16;;;;;;;6.00;2.00;;;13.30;63.90;;;;;;5072289;28;20075;-69
2023/06/02 06:24:42;;;;;;;10.02;2.10;;;13.30;63.00;;;;;;5069225;28;20647;-70
2023/06/02 06:27:07;;;;;;;7.20;1.98;;;13.20;63.60;;;;;;5069362;28;20061;-69
2023/06/02 06:29:33;;;;;;;5.68;2.25;;;13.30;63.60;;;;;;5071062;28;20090;-69
2023/06/02 06:31:59;;;;;;;8.70;2.50;;;13.40;63.50;;;;;;5070255;28;20352;-70
2023/06/02 06:34:25;;;;;;;6.28;2.10;;;13.40;63.40;;;;;;5072859;28;20482;-69
2023/06/02 06:36:51;;;;;;;6.07;2.10;;;13.40;63.40;;;;;;5071697;28;20100;-70
2023/06/02 06:39:17;;;;;;;6.25;1.88;;;13.30;63.50;;;;;;5065119;28;20028;-69
2023/06/02 06:41:43;;;;;;;8.40;2.30;;;13.40;63.70;;;;;;5078229;28;20633;-69
2023/06/02 06:44:08;;;;;;;7.38;2.22;;;13.40;63.70;;;;;;5070032;28;20061;-69
2023/06/02 06:46:34;;;;;;;9.23;2.28;;;13.30;64.00;;;;;;5067205;28;20479;-69
2023/06/02 06:49:01;;;;;;;10.38;2.38;;;13.40;64.20;;;;;;5076038;28;20020;-69
2023/06/02 06:51:26;;;;;;;7.78;2.72;;;13.40;64.20;;;;;;5071797;28;20033;-69
2023/06/02 06:53:52;;;;;;;6.07;2.00;;;13.40;64.50;;;;;;5071005;28;20035;-68
2023/06/02 06:56:18;;;;;;;5.85;2.00;;;13.50;64.40;;;;;;5071896;28;20040;-69
2023/06/02 06:58:43;;;;;;;4.03;1.70;;;13.50;64.30;;;;;;5084981;28;20459;-70
2023/06/02 07:01:13;;;;;;;6.57;2.22;;;13.60;64.30;;;;;;5068665;28;20032;-70
2023/06/02 07:03:39;;;;;;;9.32;1.92;;;13.70;64.30;;;;;;5059232;28;20471;-70
2023/06/02 07:06:05;;;;;;;5.88;1.88;;;13.80;64.10;;;;;;5074187;28;20033;-70
2023/06/02 07:08:30;;;;;;;5.57;1.75;;;13.90;64.10;;;;;;5068398;28;20020;-70
2023/06/02 07:11:14;;;;;;;8.38;2.20;;;14.00;63.90;;;;;;5066070;28;20418;-70
2023/06/02 07:13:43;;;;;;;5.07;1.85;;;14.00;63.80;;;;;;5060000;28;20021;-70
2023/06/02 07:16:08;;;;;;;7.57;2.10;;;14.00;63.60;;;;;;5072277;28;20042;-70
2023/06/02 07:18:34;;;;;;;6.28;2.20;;;14.00;63.70;;;;;;5068731;28;20119;-69
2023/06/02 07:20:59;;;;;;;7.18;2.20;;;13.90;63.90;;;;;;5069793;28;20028;-69
2023/06/02 07:23:25;;;;;;;9.25;2.47;;;14.00;64.20;;;;;;5068656;28;20101;-69
2023/06/02 07:25:51;;;;;;;7.78;2.13;;;14.00;64.30;;;;;;5072741;28;20028;-69
2023/06/02 07:28:16;;;;;;;5.60;2.00;;;14.00;64.30;;;;;;5071575;28;20473;-69
2023/06/02 07:30:47;;;;;;;7.68;2.08;;;14.00;64.30;;;;;;5066951;28;20024;-69
2023/06/02 07:33:14;;;;;;;7.00;1.77;;;14.00;64.20;;;;;;5070150;28;20028;-69
2023/06/02 07:35:40;;;;;;;5.32;1.75;;;14.10;64.10;;;;;;5072506;28;20332;-69
2023/06/02 07:38:06;;;;;;;7.03;2.00;;;14.20;64.10;;;;;;5066027;28;20020;-70
2023/06/02 07:40:31;;;;;;;9.52;2.28;;;14.30;63.90;;;;;;5067118;28;20479;-69
2023/06/02 07:42:57;;;;;;;5.80;1.90;;;14.30;63.90;;;;;;5067905;28;20025;-69
2023/06/02 07:45:22;;;;;;;7.22;2.20;;;14.30;63.90;;;;;;5071760;28;20627;-70
2023/06/02 07:47:48;;;;;;;8.10;2.00;;;14.20;64.00;;;;;;5067194;28;20020;-70
2023/06/02 07:50:14;;;;;;;7.63;1.95;;;14.30;64.10;;;;;;5070785;28;20033;-72
2023/06/02 07:52:39;;;;;;;7.15;2.15;;;14.30;64.00;;;;;;5063398;28;20023;-70
2023/06/02 07:55:06;;;;;;;8.77;2.35;;;14.40;64.00;;;;;;5067274;28;20020;-71
2023/06/02 07:57:31;;;;;;;8.43;2.35;;;14.30;64.00;;;;;;5075053;28;20052;-71
2023/06/02 07:59:57;;;;;;;9.40;2.50;;;14.30;64.20;;;;;;5069972;28;20470;-70
2023/06/02 08:02:23;;;;;;;11.50;2.67;;;14.30;64.40;;;;;;5070926;28;20103;-70
2023/06/02 08:04:48;;;;;;;7.72;2.35;;;14.30;64.50;;;;;;5071573;28;20040;-70
2023/06/02 08:07:14;;;;;;;7.38;2.10;;;14.30;64.60;;;;;;5075725;28;20032;-70
2023/06/02 08:09:39;;;;;;;8.35;1.92;;;14.30;65.50;;;;;;5072453;28;20028;-70
2023/06/02 08:12:05;;;;;;;6.88;2.58;;;14.30;64.80;;;;;;5067275;28;20075;-70
2023/06/02 08:14:31;;;;;;;9.50;2.60;;;14.30;65.00;;;;;;5067441;28;20029;-70
2023/06/02 08:16:56;;;;;;;7.45;2.20;;;14.20;65.50;;;;;;5071156;28;20037;-70
2023/06/02 08:19:25;;;;;;;6.45;2.38;;;14.30;65.40;;;;;;5072786;28;20043;-70
2023/06/02 08:21:51;;;;;;;7.30;2.35;;;14.40;65.20;;;;;;5074624;28;20548;-70
2023/06/02 08:24:16;;;;;;;8.32;2.65;;;14.40;65.00;;;;;;5071632;28;20029;-70
2023/06/02 08:26:43;;;;;;;8.45;2.30;;;14.50;65.00;;;;;;5073355;28;20032;-70
2023/06/02 08:29:08;;;;;;;7.95;2.60;;;14.60;64.90;;;;;;5072829;28;20024;-70
2023/06/02 08:31:35;;;;;;;7.38;2.30;;;14.70;64.80;;;;;;5073397;28;20399;-70
2023/06/02 08:34:04;;;;;;;5.78;2.00;;;14.70;64.70;;;;;;5071953;28;20024;-70
2023/06/02 08:36:30;;;;;;;9.75;2.70;;;14.80;64.60;;;;;;5068186;28;20023;-70
2023/06/02 08:38:56;;;;;;;6.43;2.13;;;14.80;64.50;;;;;;5070795;28;20074;-70
2023/06/02 08:41:23;;;;;;;6.93;2.33;;;14.90;64.50;;;;;;5071258;28;20467;-70
2023/06/02 08:43:51;;;;;;;10.20;2.20;;;15.00;64.40;;;;;;5073470;28;20036;-70
2023/06/02 08:46:17;;;;;;;9.18;2.67;;;15.10;64.30;;;;;;5069242;28;20514;-70
2023/06/02 08:48:45;;;;;;;8.15;2.53;;;15.20;64.00;;;;;;5072640;28;20044;-70
2023/06/02 08:51:15;;;;;;;6.80;2.10;;;15.20;64.00;;;;;;5069214;28;20016;-70
2023/06/02 08:53:41;;;;;;;6.40;2.28;;;15.20;64.00;;;;;;5072391;28;20073;-70
2023/06/02 08:56:07;;;;;;;9.55;2.30;;;15.20;63.90;;;;;;5071937;28;20519;-70
2023/06/02 08:58:33;;;;;;;7.90;2.67;;;15.20;63.80;;;;;;5073388;28;20149;-70
2023/06/02 09:00:58;;;;;;;6.82;2.42;;;15.30;63.90;;;;;;5068987;28;20077;-70
2023/06/02 09:03:27;;;;;;;4.97;2.38;;;15.30;63.70;;;;;;5073770;28;20125;-70
2023/06/02 09:05:53;;;;;;;4.50;2.10;;;15.40;63.60;;;;;;5066907;28;20029;-70
2023/06/02 09:08:19;;;;;;;9.48;2.78;;;15.50;64.20;;;;;;5068675;28;20162;-70
2023/06/02 09:10:47;;;;;;;7.20;2.50;;;15.50;63.50;;;;;;5069575;28;20024;-70
2023/06/02 09:13:33;;;;;;;7.18;2.40;;;15.50;63.40;;;;;;5077367;28;20021;-70
2023/06/02 09:16:00;;;;;;;7.40;2.50;;;15.60;63.10;;;;;;5070195;28;20016;-70
2023/06/02 09:18:26;;;;;;;7.00;2.38;;;15.60;63.20;;;;;;5073054;28;20024;-69
2023/06/02 09:20:52;;;;;;;7.68;2.92;;;15.70;63.10;;;;;;5078867;28;20020;-69
2023/06/02 09:23:19;;;;;;;8.40;2.45;;;15.60;62.80;;;;;;5077009;28;20113;-69
2023/06/02 09:25:45;;;;;;;7.85;2.63;;;15.60;62.90;;;;;;5071718;28;20031;-69
2023/06/02 09:28:11;;;;;;;5.55;2.55;;;15.40;63.10;;;;;;5074746;28;20112;-70
2023/06/02 09:30:38;;;;;;;5.28;2.40;;;15.40;63.70;;;;;;5075731;28;20028;-69
2023/06/02 09:33:11;;;;;;;8.73;2.90;;;15.60;63.60;;;;;;5077878;28;20492;-69
2023/06/02 09:35:44;;;;;;;6.53;2.78;;;15.80;63.20;;;;;;5072926;28;20471;-69
2023/06/02 09:38:15;;;;;;;6.43;2.83;;;15.80;63.20;;;;;;5075702;28;20474;-69
2023/06/02 09:40:42;;;;;;;8.95;2.92;;;15.90;63.00;;;;;;5068782;28;20470;-69
2023/06/02 09:43:12;;;;;;;5.63;2.38;;;16.00;62.70;;;;;;5077528;28;20406;-69
2023/06/02 09:45:46;;;;;;;6.35;2.83;;;16.10;62.50;;;;;;5075005;28;20073;-69
2023/06/02 09:48:20;;;;;;;5.78;2.53;;;16.10;62.40;;;;;;5075768;28;20028;-69
2023/06/02 09:50:45;;;;;;;7.65;2.67;;;16.20;62.10;;;;;;5065240;28;20117;-69
2023/06/02 09:53:13;;;;;;;6.63;2.72;;;16.20;62.30;;;;;;5081082;28;20627;-70
2023/06/02 09:55:39;;;;;;;9.27;3.10;;;16.30;62.20;;;;;;5091151;28;20016;-70
2023/06/02 09:58:06;;;;;;;8.55;3.25;;;16.30;62.10;;;;;;5086831;28;20489;-69
2023/06/02 10:00:32;;;;;;;7.88;2.97;;;16.50;62.00;;;;;;5070725;28;20548;-69
2023/06/02 10:02:58;;;;;;;7.57;2.78;;;16.40;61.70;;;;;;5069386;28;20028;-69
2023/06/02 10:05:24;;;;;;;7.32;2.40;;;16.40;62.00;;;;;;5070595;28;20025;-69
2023/06/02 10:08:04;;;;;;;6.72;3.00;;;16.60;61.90;;;;;;5070467;28;20125;-69
2023/06/02 10:11:11;;;;;;;8.27;3.53;;;16.70;61.50;;;;;;5070218;28;20131;-69
2023/06/02 10:14:17;;;;;;;7.57;2.88;;;16.60;61.40;;;;;;5070012;28;20399;-69
2023/06/02 10:17:15;;;;;;;7.75;3.00;;;16.70;61.50;;;;;;5041453;28;20033;-69
2023/06/02 10:20:15;;;;;;;6.40;2.72;;;16.90;62.00;;;;;;5012946;28;20048;-69
2023/06/02 10:23:12;;;;;;;10.60;3.53;;;17.00;61.30;;;;;;5051013;28;20060;-69
2023/06/02 10:26:06;;;;;;;8.20;3.00;;;17.00;60.80;;;;;;5050290;28;20032;-69
2023/06/02 10:28:32;;;;;;;10.77;3.17;;;16.80;61.20;;;;;;5059849;28;20046;-69
2023/06/02 10:31:08;;;;;;;8.75;2.58;;;16.90;61.30;;;;;;5084345;28;20020;-69
2023/06/02 10:33:47;;;;;;;7.78;2.80;;;17.00;61.20;;;;;;5059164;28;20030;-70
2023/06/02 10:36:13;;;;;;;9.73;3.50;;;17.10;61.40;;;;;;5075185;28;20036;-69
2023/06/02 10:38:40;;;;;;;9.60;2.88;;;17.20;61.00;;;;;;5074286;28;20379;-69
2023/06/02 10:41:06;;;;;;;9.32;3.33;;;17.30;60.90;;;;;;5084897;28;20097;-69
2023/06/02 10:43:33;;;;;;;7.95;3.15;;;17.40;60.60;;;;;;5085264;28;20493;-69
2023/06/02 10:46:21;;;;;;;7.15;3.15;;;17.50;60.30;;;;;;5069496;28;20132;-70
2023/06/02 10:48:47;;;;;;;12.55;2.83;;;17.60;60.20;;;;;;5076028;28;20012;-69
2023/06/02 10:51:13;;;;;;;8.77;2.90;;;17.70;59.90;;;;;;5082153;28;20029;-70
2023/06/02 10:54:06;;;;;;;8.55;2.92;;;17.70;59.80;;;;;;5086154;28;20023;-69
2023/06/02 10:56:42;;;;;;;6.15;3.33;;;17.80;59.70;;;;;;5052062;28;20021;-69
2023/06/02 10:59:10;;;;;;;8.38;3.13;;;17.60;59.50;;;;;;5084713;28;20016;-69
2023/06/02 11:01:51;;;;;;;10.43;3.45;;;17.50;60.00;;;;;;5090076;28;20031;-69
2023/06/02 11:04:24;;;;;;;10.40;3.45;;;17.50;60.40;;;;;;5080327;28;20483;-69
2023/06/02 11:07:23;;;;;;;5.80;2.35;;;17.50;60.30;;;;;;5068663;28;20051;-69
2023/06/02 11:10:00;;;;;;;5.55;2.50;;;17.70;60.10;;;;;;5069718;28;20471;-70
2023/06/02 11:12:50;;;;;;;7.93;2.80;;;18.00;59.80;;;;;;5069452;28;20052;-70
2023/06/02 11:15:20;;;;;;;7.43;2.72;;;18.10;59.60;;;;;;5067888;28;20052;-70
2023/06/02 11:17:47;;;;;;;6.40;2.20;;;18.10;59.40;;;;;;5069315;28;20021;-70
2023/06/02 11:20:15;;;;;;;7.82;3.17;;;18.20;59.40;;;;;;5069472;28;20051;-69
2023/06/02 11:22:41;;;;;;;8.60;3.33;;;18.30;58.90;;;;;;5069635;28;20042;-69
2023/06/02 11:25:08;;;;;;;7.90;3.00;;;18.30;59.10;;;;;;5068404;28;20025;-69
2023/06/02 11:27:40;;;;;;;7.22;2.90;;;18.30;58.90;;;;;;5070430;28;20395;-70
2023/06/02 11:30:06;;;;;;;8.00;3.35;;;18.40;58.70;;;;;;5072282;28;20407;-68
2023/06/02 11:32:32;;;;;;;6.80;2.70;;;18.20;58.60;;;;;;5081670;28;20021;-69
2023/06/02 11:35:07;;;;;;;6.80;2.88;;;18.40;58.80;;;;;;5089806;28;20028;-70
2023/06/02 11:37:33;;;;;;;8.48;3.53;;;18.60;58.40;;;;;;5058237;28;20047;-70
2023/06/02 11:39:59;;;;;;;7.28;3.55;;;18.60;58.00;;;;;;5073531;28;20024;-70
2023/06/02 11:42:37;;;;;;;6.70;2.70;;;18.30;58.00;;;;;;5073270;28;20028;-70
2023/06/02 11:45:03;;;;;;;7.75;2.78;;;18.30;58.70;;;;;;5053580;28;20029;-70
2023/06/02 11:47:29;;;;;;;8.32;2.92;;;18.50;58.80;;;;;;5053460;28;20025;-70
2023/06/02 11:49:55;;;;;;;7.45;3.20;;;18.70;58.70;;;;;;5053540;28;20073;-71
2023/06/02 11:52:20;;;;;;;8.43;3.03;;;18.80;58.40;;;;;;5053652;28;20361;-70
2023/06/02 11:54:50;;;;;;;10.02;3.55;;;18.70;58.10;;;;;;5052099;28;20025;-69
2023/06/02 11:57:33;;;;;;;10.90;4.07;;;18.80;58.50;;;;;;5053267;28;20074;-69
2023/06/02 12:00:19;;;;;;;9.32;3.90;;;18.50;58.10;;;;;;5077389;28;20668;-70
2023/06/02 12:02:52;;;;;;;8.70;3.30;;;18.40;58.90;;;;;;5072893;28;20449;-69
2023/06/02 12:05:29;;;;;;;8.68;3.25;;;18.40;59.40;;;;;;5085624;28;20034;-69
2023/06/02 12:07:56;;;;;;;7.07;3.10;;;18.30;59.40;;;;;;5084493;28;20103;-69
2023/06/02 12:10:29;;;;;;;7.10;3.08;;;18.40;59.50;;;;;;5081030;28;20039;-69
2023/06/02 12:12:55;;;;;;;11.85;4.07;;;18.70;59.30;;;;;;5061309;28;20386;-69
2023/06/02 12:15:20;;;;;;;10.05;3.72;;;18.70;58.60;;;;;;5092638;28;20097;-70
2023/06/02 12:17:46;;;;;;;7.85;2.65;;;18.50;58.80;;;;;;5081051;28;20035;-69
2023/06/02 12:20:11;;;;;;;6.18;2.83;;;18.80;59.00;;;;;;5070826;28;20025;-69
2023/06/02 12:22:55;;;;;;;7.07;3.38;;;19.10;58.60;;;;;;5071094;28;20071;-69
2023/06/02 12:25:21;;;;;;;8.65;3.50;;;19.10;58.00;;;;;;5091724;28;20028;-69
2023/06/02 12:27:48;;;;;;;8.27;3.08;;;19.10;58.20;;;;;;5083895;28;20115;-69
2023/06/02 12:30:14;;;;;;;8.73;3.10;;;19.10;58.20;;;;;;5092283;28;20020;-69
2023/06/02 12:32:39;;;;;;;10.02;3.40;;;19.20;58.20;;;;;;5083858;28;20420;-69
2023/06/02 12:35:06;;;;;;;8.90;3.30;;;19.20;57.90;;;;;;5092288;28;20030;-69
2023/06/02 12:37:31;;;;;;;6.97;3.53;;;19.30;57.80;;;;;;5074004;28;20446;-69
2023/06/02 12:39:57;;;;;;;9.02;3.45;;;19.30;57.40;;;;;;5079244;28;20025;-69
2023/06/02 12:42:23;;;;;;;7.85;3.33;;;19.20;57.90;;;;;;5074930;28;20020;-70
2023/06/02 12:44:49;;;;;;;7.00;3.28;;;19.30;57.80;;;;;;5065967;28;20089;-70
2023/06/02 12:47:17;;;;;;;7.88;3.20;;;19.30;57.90;;;;;;5081799;28;20160;-71
2023/06/02 12:49:47;;;;;;;10.85;3.88;;;19.50;57.60;;;;;;5080951;28;20368;-70